KEGI/EGI METAR and TAF weather

Enter ICAO airport designator
Station Type Date Time Source
KEGI METAR 2021/01/16 02:56 UTC NOAA

KEGI 160256Z AUTO 29005KT 10SM CLR 07/M06 A2988 RMK AO2 SLP120 T00741064 52023 $


Station Type Date Time Source
KEGI Decoded METAR 2021/01/16 02:56 UTC NOAA

Duke Field / Eglin Auxiliary, FL, United States (KEGI) 30-39N 086-31W
Jan 15, 2021 - 09:56 PM EST / 2021.01.16 0256 UTC
Wind: from the WNW (290 degrees) at 6 MPH (5 KT):0
Visibility: 10 mile(s):0
Sky conditions: clear
Temperature: 45.3 F (7.4 C)
Dew Point: 20.5 F (-6.4 C)
Relative Humidity: 36%
Pressure (altimeter): 29.88 in. Hg (1011 hPa)
Pressure tendency: 0.07 inches (2.3 hPa) higher than three hours ago
ob: KEGI 160256Z AUTO 29005KT 10SM CLR 07/M06 A2988 RMK AO2 SLP120 T00741064 52023
cycle: 3

Station Type Date Time Source
KEGI TAF 2021/01/15 02:07 UTC NOAA

TAF KEGI 150200Z 1502/1608 19009KT 9999 BKN040 QNH2982INS
BECMG 1507/1508 26012G18KT 9999 VCSH SCT025 BKN035 QNH2978INS
TEMPO 1508/1512 9000 -SHRA BKN020
BECMG 1511/1512 32010G16KT 9999 NSW SCT020 QNH2980INS
BECMG 1515/1516 29012G22KT 9999 SKC QNH2983INS WND 28012KT AFT 1602 TX16/1521Z TN07/1513Z

Example: see airport list